sensor_id;sensor_type;location;lat;lon;timestamp;pressure;altitude;pressure_sealevel;temperature;humidity
11856;BME280;5987;53.140;8.904;2023-04-08T00:02:41;102373.78;;;5.49;100.00
11856;BME280;5987;53.140;8.904;2023-04-08T00:05:45;102368.56;;;5.47;100.00
11856;BME280;5987;53.140;8.904;2023-04-08T00:08:50;102369.47;;;5.53;100.00
11856;BME280;5987;53.140;8.904;2023-04-08T00:11:54;102367.66;;;5.45;100.00
11856;BME280;5987;53.140;8.904;2023-04-08T00:14:58;102378.91;;;5.43;100.00
11856;BME280;5987;53.140;8.904;2023-04-08T00:18:02;102377.13;;;5.36;100.00
11856;BME280;5987;53.140;8.904;2023-04-08T00:21:05;102378.91;;;5.40;100.00
11856;BME280;5987;53.140;8.904;2023-04-08T00:24:10;102376.38;;;5.49;100.00
11856;BME280;5987;53.140;8.904;2023-04-08T00:27:14;102378.88;;;5.37;100.00
11856;BME280;5987;53.140;8.904;2023-04-08T00:30:18;102382.41;;;5.43;100.00
11856;BME280;5987;53.140;8.904;2023-04-08T00:33:21;102385.00;;;5.42;100.00
11856;BME280;5987;53.140;8.904;2023-04-08T00:36:27;102384.94;;;5.37;100.00
11856;BME280;5987;53.140;8.904;2023-04-08T00:39:32;102382.41;;;5.43;100.00
11856;BME280;5987;53.140;8.904;2023-04-08T00:42:36;102384.19;;;5.46;100.00
11856;BME280;5987;53.140;8.904;2023-04-08T00:45:39;102385.84;;;5.41;100.00
11856;BME280;5987;53.140;8.904;2023-04-08T00:48:43;102383.22;;;5.38;100.00
11856;BME280;5987;53.140;8.904;2023-04-08T00:51:46;102382.47;;;5.49;100.00
11856;BME280;5987;53.140;8.904;2023-04-08T00:54:51;102382.28;;;5.32;100.00
11856;BME280;5987;53.140;8.904;2023-04-08T00:57:56;102376.28;;;5.38;100.00
11856;BME280;5987;53.140;8.904;2023-04-08T01:01:08;102377.06;;;5.29;100.00
11856;BME280;5987;53.140;8.904;2023-04-08T01:04:27;102368.38;;;5.27;100.00
11856;BME280;5987;53.140;8.904;2023-04-08T01:07:35;102376.25;;;5.37;100.00
11856;BME280;5987;53.140;8.904;2023-04-08T01:10:41;102372.72;;;5.31;100.00
11856;BME280;5987;53.140;8.904;2023-04-08T01:13:50;102375.38;;;5.35;100.00
11856;BME280;5987;53.140;8.904;2023-04-08T01:16:55;102383.25;;;5.39;100.00
11856;BME280;5987;53.140;8.904;2023-04-08T01:20:03;102383.25;;;5.41;100.00
11856;BME280;5987;53.140;8.904;2023-04-08T01:23:16;102385.84;;;5.41;100.00
11856;BME280;5987;53.140;8.904;2023-04-08T01:26:24;102382.41;;;5.42;100.00
11856;BME280;5987;53.140;8.904;2023-04-08T01:29:29;102382.44;;;5.46;100.00
11856;BME280;5987;53.140;8.904;2023-04-08T01:32:34;102384.09;;;5.40;100.00
11856;BME280;5987;53.140;8.904;2023-04-08T01:35:39;102384.09;;;5.40;100.00
11856;BME280;5987;53.140;8.904;2023-04-08T01:38:43;102383.28;;;5.47;100.00
11856;BME280;5987;53.140;8.904;2023-04-08T01:41:53;102394.59;;;5.44;100.00
11856;BME280;5987;53.140;8.904;2023-04-08T01:44:59;102392.00;;;5.46;100.00
11856;BME280;5987;53.140;8.904;2023-04-08T01:48:04;102390.28;;;5.51;100.00
11856;BME280;5987;53.140;8.904;2023-04-08T01:51:10;102395.47;;;5.49;100.00
11856;BME280;5987;53.140;8.904;2023-04-08T01:54:13;102390.34;;;5.54;100.00
11856;BME280;5987;53.140;8.904;2023-04-08T01:57:23;102384.97;;;5.39;100.00
11856;BME280;5987;53.140;8.904;2023-04-08T02:00:30;102381.50;;;5.38;100.00
11856;BME280;5987;53.140;8.904;2023-04-08T02:03:35;102386.69;;;5.38;100.00
11856;BME280;5987;53.140;8.904;2023-04-08T02:06:40;102396.28;;;5.41;100.00
11856;BME280;5987;53.140;8.904;2023-04-08T02:09:43;102394.59;;;5.46;100.00
11856;BME280;5987;53.140;8.904;2023-04-08T02:12:48;102389.34;;;5.43;100.00
11856;BME280;5987;53.140;8.904;2023-04-08T02:16:03;102398.84;;;5.38;100.00
11856;BME280;5987;53.140;8.904;2023-04-08T02:19:13;102397.03;;;5.27;100.00
11856;BME280;5987;53.140;8.904;2023-04-08T02:22:28;102400.50;;;5.29;100.00
11856;BME280;5987;53.140;8.904;2023-04-08T02:25:37;102402.25;;;5.30;100.00
11856;BME280;5987;53.140;8.904;2023-04-08T02:28:42;102404.09;;;5.42;100.00
11856;BME280;5987;53.140;8.904;2023-04-08T02:31:47;102402.28;;;5.35;100.00
11856;BME280;5987;53.140;8.904;2023-04-08T02:34:53;102403.16;;;5.36;100.00
11856;BME280;5987;53.140;8.904;2023-04-08T02:37:58;102399.81;;;5.44;100.00
11856;BME280;5987;53.140;8.904;2023-04-08T02:41:02;102398.03;;;5.42;100.00
11856;BME280;5987;53.140;8.904;2023-04-08T02:44:07;102398.00;;;5.39;100.00
11856;BME280;5987;53.140;8.904;2023-04-08T02:47:11;102396.97;;;5.24;100.00
11856;BME280;5987;53.140;8.904;2023-04-08T02:50:15;102398.69;;;5.22;100.00
11856;BME280;5987;53.140;8.904;2023-04-08T02:53:18;102401.31;;;5.25;100.00
11856;BME280;5987;53.140;8.904;2023-04-08T02:56:22;102400.44;;;5.23;100.00
11856;BME280;5987;53.140;8.904;2023-04-08T02:59:27;102398.69;;;5.22;100.00
11856;BME280;5987;53.140;8.904;2023-04-08T03:02:31;102389.09;;;5.18;100.00
11856;BME280;5987;53.140;8.904;2023-04-08T03:05:35;102390.69;;;5.04;100.00
11856;BME280;5987;53.140;8.904;2023-04-08T03:08:38;102395.25;;;5.23;100.00
11856;BME280;5987;53.140;8.904;2023-04-08T03:11:42;102394.34;;;5.21;100.00
11856;BME280;5987;53.140;8.904;2023-04-08T03:14:48;102400.44;;;5.23;100.00
11856;BME280;5987;53.140;8.904;2023-04-08T03:17:51;102407.34;;;5.20;100.00
11856;BME280;5987;53.140;8.904;2023-04-08T03:20:55;102405.69;;;5.25;100.00
11856;BME280;5987;53.140;8.904;2023-04-08T03:23:59;102405.53;;;5.14;100.00
11856;BME280;5987;53.140;8.904;2023-04-08T03:27:03;102401.97;;;5.04;100.00
11856;BME280;5987;53.140;8.904;2023-04-08T03:30:08;102407.16;;;5.04;100.00
11856;BME280;5987;53.140;8.904;2023-04-08T03:33:12;102409.81;;;5.09;100.00
11856;BME280;5987;53.140;8.904;2023-04-08T03:36:15;102411.59;;;5.13;100.00
11856;BME280;5987;53.140;8.904;2023-04-08T03:39:19;102421.16;;;5.12;100.00
11856;BME280;5987;53.140;8.904;2023-04-08T03:42:23;102409.91;;;5.15;100.00
11856;BME280;5987;53.140;8.904;2023-04-08T03:45:28;102411.63;;;5.16;100.00
11856;BME280;5987;53.140;8.904;2023-04-08T03:48:31;102408.91;;;5.04;100.00
11856;BME280;5987;53.140;8.904;2023-04-08T03:51:35;102404.50;;;4.96;100.00
11856;BME280;5987;53.140;8.904;2023-04-08T03:54:38;102406.22;;;4.97;100.00
11856;BME280;5987;53.140;8.904;2023-04-08T03:57:43;102412.19;;;4.87;100.00
11856;BME280;5987;53.140;8.904;2023-04-08T04:00:48;102409.59;;;4.90;100.00
11856;BME280;5987;53.140;8.904;2023-04-08T04:03:52;102413.88;;;4.85;100.00
11856;BME280;5987;53.140;8.904;2023-04-08T04:06:56;102426.09;;;4.91;100.00
11856;BME280;5987;53.140;8.904;2023-04-08T04:09:59;102413.97;;;4.91;100.00
11856;BME280;5987;53.140;8.904;2023-04-08T04:13:03;102418.19;;;4.83;100.00
11856;BME280;5987;53.140;8.904;2023-04-08T04:16:08;102416.53;;;4.88;100.00
11856;BME280;5987;53.140;8.904;2023-04-08T04:19:11;102420.06;;;4.93;100.00
11856;BME280;5987;53.140;8.904;2023-04-08T04:22:15;102431.22;;;4.85;100.00
11856;BME280;5987;53.140;8.904;2023-04-08T04:25:19;102430.41;;;4.87;100.00
11856;BME280;5987;53.140;8.904;2023-04-08T04:28:22;102438.16;;;4.84;100.00
11856;BME280;5987;53.140;8.904;2023-04-08T04:31:27;102432.22;;;4.94;100.00
11856;BME280;5987;53.140;8.904;2023-04-08T04:34:31;102438.16;;;4.84;100.00
11856;BME280;5987;53.140;8.904;2023-04-08T04:37:35;102442.47;;;4.82;100.00
11856;BME280;5987;53.140;8.904;2023-04-08T04:40:38;102446.13;;;4.96;100.00
11856;BME280;5987;53.140;8.904;2023-04-08T04:43:42;102454.66;;;4.86;100.00
11856;BME280;5987;53.140;8.904;2023-04-08T04:46:47;102455.59;;;4.90;100.00
11856;BME280;5987;53.140;8.904;2023-04-08T04:49:51;102445.25;;;4.96;100.00
11856;BME280;5987;53.140;8.904;2023-04-08T04:52:54;102443.56;;;5.00;100.00
11856;BME280;5987;53.140;8.904;2023-04-08T04:55:58;102449.69;;;5.05;100.00
11856;BME280;5987;53.140;8.904;2023-04-08T04:59:03;102439.22;;;4.98;100.00
11856;BME280;5987;53.140;8.904;2023-04-08T05:02:09;102461.09;;;5.16;100.00
11856;BME280;5987;53.140;8.904;2023-04-08T05:05:13;102450.78;;;5.24;100.00
11856;BME280;5987;53.140;8.904;2023-04-08T05:08:16;102454.91;;;5.05;100.00
11856;BME280;5987;53.140;8.904;2023-04-08T05:11:20;102457.75;;;5.25;100.00
11856;BME280;5987;53.140;8.904;2023-04-08T05:14:24;102459.53;;;5.27;100.00
11856;BME280;5987;53.140;8.904;2023-04-08T05:17:29;102460.41;;;5.29;100.00
11856;BME280;5987;53.140;8.904;2023-04-08T05:20:33;102466.44;;;5.25;100.00
11856;BME280;5987;53.140;8.904;2023-04-08T05:23:36;102468.91;;;5.16;100.00
11856;BME280;5987;53.140;8.904;2023-04-08T05:26:42;102468.88;;;5.11;100.00
11856;BME280;5987;53.140;8.904;2023-04-08T05:29:46;102472.38;;;5.12;100.00
11856;BME280;5987;53.140;8.904;2023-04-08T05:32:51;102469.88;;;5.23;100.00
11856;BME280;5987;53.140;8.904;2023-04-08T05:35:54;102467.22;;;5.20;100.00
11856;BME280;5987;53.140;8.904;2023-04-08T05:38:58;102471.66;;;5.27;100.00
11856;BME280;5987;53.140;8.904;2023-04-08T05:42:04;102476.78;;;5.18;100.00
11856;BME280;5987;53.140;8.904;2023-04-08T05:45:09;102477.75;;;5.27;100.00
11856;BME280;5987;53.140;8.904;2023-04-08T05:48:14;102477.75;;;5.27;100.00
11856;BME280;5987;53.140;8.904;2023-04-08T05:51:17;102488.06;;;5.18;100.00
11856;BME280;5987;53.140;8.904;2023-04-08T05:54:21;102480.25;;;5.20;100.00
11856;BME280;5987;53.140;8.904;2023-04-08T05:57:24;102488.91;;;5.17;100.00
11856;BME280;5987;53.140;8.904;2023-04-08T06:00:28;102484.53;;;5.16;100.00
11856;BME280;5987;53.140;8.904;2023-04-08T06:03:33;102490.59;;;5.13;100.00
11856;BME280;5987;53.140;8.904;2023-04-08T06:06:37;102491.47;;;5.14;100.00
11856;BME280;5987;53.140;8.904;2023-04-08T06:09:41;102503.63;;;5.15;100.00
11856;BME280;5987;53.140;8.904;2023-04-08T06:12:46;102501.09;;;5.20;100.00
11856;BME280;5987;53.140;8.904;2023-04-08T06:15:50;102497.72;;;5.28;100.00
11856;BME280;5987;53.140;8.904;2023-04-08T06:18:54;102505.50;;;5.27;100.00
11856;BME280;5987;53.140;8.904;2023-04-08T06:21:58;102507.44;;;5.43;100.00
11856;BME280;5987;53.140;8.904;2023-04-08T06:25:02;102511.69;;;5.35;100.00
11856;BME280;5987;53.140;8.904;2023-04-08T06:28:05;102514.31;;;5.37;100.00
11856;BME280;5987;53.140;8.904;2023-04-08T06:31:09;102516.09;;;5.39;100.00
11856;BME280;5987;53.140;8.904;2023-04-08T06:34:14;102521.31;;;5.41;100.00
11856;BME280;5987;53.140;8.904;2023-04-08T06:37:18;102531.53;;;5.25;100.00
11856;BME280;5987;53.140;8.904;2023-04-08T06:40:21;102534.31;;;5.38;100.00
11856;BME280;5987;53.140;8.904;2023-04-08T06:43:25;102537.94;;;5.52;100.00
11856;BME280;5987;53.140;8.904;2023-04-08T06:46:29;102541.44;;;5.54;100.00
11856;BME280;5987;53.140;8.904;2023-04-08T06:49:33;102541.53;;;5.62;100.00
11856;BME280;5987;53.140;8.904;2023-04-08T06:52:38;102545.91;;;5.66;100.00
11856;BME280;5987;53.140;8.904;2023-04-08T06:55:42;102552.97;;;5.76;100.00
11856;BME280;5987;53.140;8.904;2023-04-08T06:58:46;102553.84;;;5.75;100.00
11856;BME280;5987;53.140;8.904;2023-04-08T07:01:49;102561.56;;;5.67;100.00
11856;BME280;5987;53.140;8.904;2023-04-08T07:04:55;102565.72;;;5.50;100.00
11856;BME280;5987;53.140;8.904;2023-04-08T07:07:58;102563.97;;;5.50;100.00
11856;BME280;5987;53.140;8.904;2023-04-08T07:11:02;102570.94;;;5.50;100.00
11856;BME280;5987;53.140;8.904;2023-04-08T07:14:06;102565.75;;;5.53;100.00
11856;BME280;5987;53.140;8.904;2023-04-08T07:17:09;102561.38;;;5.52;100.00
11856;BME280;5987;53.140;8.904;2023-04-08T07:20:15;102573.56;;;5.53;100.00
11856;BME280;5987;53.140;8.904;2023-04-08T07:23:19;102563.28;;;5.65;100.00
11856;BME280;5987;53.140;8.904;2023-04-08T07:26:23;102556.56;;;5.89;100.00
11856;BME280;5987;53.140;8.904;2023-04-08T07:29:27;102564.44;;;5.91;100.00
11856;BME280;5987;53.140;8.904;2023-04-08T07:32:32;102560.22;;;6.00;100.00
11856;BME280;5987;53.140;8.904;2023-04-08T07:35:37;102564.44;;;5.91;100.00
11856;BME280;5987;53.140;8.904;2023-04-08T07:38:41;102569.59;;;5.88;100.00
11856;BME280;5987;53.140;8.904;2023-04-08T07:41:45;102569.69;;;5.94;100.00
11856;BME280;5987;53.140;8.904;2023-04-08T07:44:48;102568.69;;;5.81;100.00
11856;BME280;5987;53.140;8.904;2023-04-08T07:47:55;102572.19;;;5.86;100.00
11856;BME280;5987;53.140;8.904;2023-04-08T07:51:04;102566.16;;;5.90;100.00
11856;BME280;5987;53.140;8.904;2023-04-08T07:54:11;102565.44;;;6.00;100.00
11856;BME280;5987;53.140;8.904;2023-04-08T07:57:18;102562.06;;;6.11;100.00
11856;BME280;5987;53.140;8.904;2023-04-08T08:00:22;102560.31;;;6.11;100.00
11856;BME280;5987;53.140;8.904;2023-04-08T08:03:26;102576.88;;;6.13;100.00
11856;BME280;5987;53.140;8.904;2023-04-08T08:06:33;102574.31;;;6.21;100.00
11856;BME280;5987;53.140;8.904;2023-04-08T08:09:36;102570.75;;;6.13;100.00
11856;BME280;5987;53.140;8.904;2023-04-08T08:12:40;102575.25;;;6.26;100.00
11856;BME280;5987;53.140;8.904;2023-04-08T08:15:44;102573.44;;;6.19;100.00
11856;BME280;5987;53.140;8.904;2023-04-08T08:18:47;102567.16;;;6.01;100.00
11856;BME280;5987;53.140;8.904;2023-04-08T08:21:52;102576.13;;;6.28;100.00
11856;BME280;5987;53.140;8.904;2023-04-08T08:24:56;102582.28;;;6.35;100.00
11856;BME280;5987;53.140;8.904;2023-04-08T08:28:00;102576.28;;;6.47;100.00
11856;BME280;5987;53.140;8.904;2023-04-08T08:31:04;102572.88;;;6.54;100.00
11856;BME280;5987;53.140;8.904;2023-04-08T08:34:08;102578.03;;;6.48;100.00
11856;BME280;5987;53.140;8.904;2023-04-08T08:37:13;102589.16;;;6.28;100.00
11856;BME280;5987;53.140;8.904;2023-04-08T08:40:17;102580.63;;;6.46;100.00
11856;BME280;5987;53.140;8.904;2023-04-08T08:43:20;102581.44;;;6.39;100.00
11856;BME280;5987;53.140;8.904;2023-04-08T08:46:24;102582.53;;;6.66;100.00
11856;BME280;5987;53.140;8.904;2023-04-08T08:49:28;102585.97;;;6.57;100.00
11856;BME280;5987;53.140;8.904;2023-04-08T08:52:33;102601.38;;;6.32;100.00
11856;BME280;5987;53.140;8.904;2023-04-08T08:55:37;102602.38;;;6.47;100.00
11856;BME280;5987;53.140;8.904;2023-04-08T08:59:00;102605.75;;;6.33;100.00
11856;BME280;5987;53.140;8.904;2023-04-08T09:02:23;102615.34;;;6.34;100.00
11856;BME280;5987;53.140;8.904;2023-04-08T09:05:29;102616.31;;;6.49;100.00
11856;BME280;5987;53.140;8.904;2023-04-08T09:08:37;102618.91;;;6.46;100.00
11856;BME280;5987;53.140;8.904;2023-04-08T09:11:42;102617.19;;;6.48;100.00
11856;BME280;5987;53.140;8.904;2023-04-08T09:14:47;102624.28;;;6.61;100.00
11856;BME280;5987;53.140;8.904;2023-04-08T09:17:51;102628.44;;;6.42;100.00
11856;BME280;5987;53.140;8.904;2023-04-08T09:20:55;102633.72;;;6.48;100.00
11856;BME280;5987;53.140;8.904;2023-04-08T09:24:00;102632.97;;;6.65;100.00
11856;BME280;5987;53.140;8.904;2023-04-08T09:27:04;102634.56;;;6.46;100.00
11856;BME280;5987;53.140;8.904;2023-04-08T09:30:17;102632.09;;;6.58;100.00
11856;BME280;5987;53.140;8.904;2023-04-08T09:33:29;102640.78;;;6.60;100.00
11856;BME280;5987;53.140;8.904;2023-04-08T09:36:34;102640.66;;;6.46;100.00
11856;BME280;5987;53.140;8.904;2023-04-08T09:39:38;102641.41;;;6.34;100.00
11856;BME280;5987;53.140;8.904;2023-04-08T09:42:45;102642.41;;;6.49;100.00
11856;BME280;5987;53.140;8.904;2023-04-08T09:45:51;102642.59;;;6.67;100.00
11856;BME280;5987;53.140;8.904;2023-04-08T09:49:04;102633.09;;;6.77;100.00
11856;BME280;5987;53.140;8.904;2023-04-08T09:52:14;102639.25;;;6.87;100.00
11856;BME280;5987;53.140;8.904;2023-04-08T09:55:22;102641.03;;;6.90;100.00
11856;BME280;5987;53.140;8.904;2023-04-08T09:58:33;102639.25;;;6.84;100.00
11856;BME280;5987;53.140;8.904;2023-04-08T10:01:48;102637.50;;;6.84;100.00
11856;BME280;5987;53.140;8.904;2023-04-08T10:04:54;102641.03;;;6.88;100.00
11856;BME280;5987;53.140;8.904;2023-04-08T10:08:01;102642.81;;;6.94;100.00
11856;BME280;5987;53.140;8.904;2023-04-08T10:11:06;102641.06;;;6.96;100.00
11856;BME280;5987;53.140;8.904;2023-04-08T10:14:10;102646.22;;;6.85;100.00
11856;BME280;5987;53.140;8.904;2023-04-08T10:17:23;102640.25;;;7.03;100.00
11856;BME280;5987;53.140;8.904;2023-04-08T10:20:49;102638.63;;;7.17;100.00
11856;BME280;5987;53.140;8.904;2023-04-08T10:23:55;102643.53;;;6.79;100.00
11856;BME280;5987;53.140;8.904;2023-04-08T10:27:02;102653.19;;;6.89;100.00
11856;BME280;5987;53.140;8.904;2023-04-08T10:30:40;102655.91;;;7.04;100.00
11856;BME280;5987;53.140;8.904;2023-04-08T10:33:44;102650.75;;;7.12;100.00
11856;BME280;5987;53.140;8.904;2023-04-08T10:36:47;102646.50;;;7.25;100.00
11856;BME280;5987;53.140;8.904;2023-04-08T10:39:53;102652.56;;;7.19;100.00
11856;BME280;5987;53.140;8.904;2023-04-08T10:42:59;102655.16;;;7.15;100.00
11856;BME280;5987;53.140;8.904;2023-04-08T10:46:03;102656.91;;;7.17;100.00
11856;BME280;5987;53.140;8.904;2023-04-08T10:49:07;102659.41;;;7.02;100.00
11856;BME280;5987;53.140;8.904;2023-04-08T10:52:11;102655.00;;;6.96;100.00
11856;BME280;5987;53.140;8.904;2023-04-08T10:55:22;102657.88;;;7.35;100.00
11856;BME280;5987;53.140;8.904;2023-04-08T10:58:27;102663.19;;;7.52;100.00
11856;BME280;5987;53.140;8.904;2023-04-08T11:01:38;102650.97;;;7.43;100.00
11856;BME280;5987;53.140;8.904;2023-04-08T11:04:43;102655.16;;;7.21;100.00
11856;BME280;5987;53.140;8.904;2023-04-08T11:07:49;102648.28;;;7.34;100.00
11856;BME280;5987;53.140;8.904;2023-04-08T11:10:52;102639.69;;;7.55;100.00
11856;BME280;5987;53.140;8.904;2023-04-08T11:13:58;102640.47;;;7.37;100.00
11856;BME280;5987;53.140;8.904;2023-04-08T11:17:02;102652.78;;;7.60;100.00
11856;BME280;5987;53.140;8.904;2023-04-08T11:20:09;102645.09;;;8.03;100.00
11856;BME280;5987;53.140;8.904;2023-04-08T11:23:13;102639.94;;;8.20;100.00
11856;BME280;5987;53.140;8.904;2023-04-08T11:26:17;102638.19;;;8.17;100.00
11856;BME280;5987;53.140;8.904;2023-04-08T11:29:22;102632.06;;;8.14;100.00
11856;BME280;5987;53.140;8.904;2023-04-08T11:32:26;102631.16;;;8.02;100.00
11856;BME280;5987;53.140;8.904;2023-04-08T11:35:31;102637.31;;;8.20;100.00
11856;BME280;5987;53.140;8.904;2023-04-08T11:38:38;102632.03;;;8.03;100.00
11856;BME280;5987;53.140;8.904;2023-04-08T11:41:42;102626.84;;;8.26;100.00
11856;BME280;5987;53.140;8.904;2023-04-08T11:44:47;102636.44;;;8.24;100.00
11856;BME280;5987;53.140;8.904;2023-04-08T11:47:51;102640.75;;;8.05;100.00
11856;BME280;5987;53.140;8.904;2023-04-08T11:51:03;102642.63;;;8.45;100.00
11856;BME280;5987;53.140;8.904;2023-04-08T11:54:25;102642.63;;;8.51;100.00
11856;BME280;5987;53.140;8.904;2023-04-08T11:57:30;102642.63;;;8.80;100.00
11856;BME280;5987;53.140;8.904;2023-04-08T12:00:36;102640.00;;;8.45;100.00
11856;BME280;5987;53.140;8.904;2023-04-08T12:03:54;102643.41;;;8.28;100.00
11856;BME280;5987;53.140;8.904;2023-04-08T12:06:58;102640.00;;;8.51;100.00
11856;BME280;5987;53.140;8.904;2023-04-08T12:10:02;102644.31;;;8.26;100.00
11856;BME280;5987;53.140;8.904;2023-04-08T12:13:06;102639.06;;;8.35;100.00
11856;BME280;5987;53.140;8.904;2023-04-08T12:16:11;102641.72;;;8.41;100.00
11856;BME280;5987;53.140;8.904;2023-04-08T12:19:15;102647.00;;;8.46;100.00
11856;BME280;5987;53.140;8.904;2023-04-08T12:22:19;102644.31;;;8.36;100.00
11856;BME280;5987;53.140;8.904;2023-04-08T12:25:22;102642.59;;;8.43;100.00
11856;BME280;5987;53.140;8.904;2023-04-08T12:28:26;102643.50;;;8.50;100.00
11856;BME280;5987;53.140;8.904;2023-04-08T12:31:32;102637.34;;;8.38;100.00
11856;BME280;5987;53.140;8.904;2023-04-08T12:34:36;102633.84;;;8.29;100.00
11856;BME280;5987;53.140;8.904;2023-04-08T12:37:40;102641.66;;;8.21;100.00
11856;BME280;5987;53.140;8.904;2023-04-08T12:40:43;102643.50;;;8.56;100.00
11856;BME280;5987;53.140;8.904;2023-04-08T12:43:48;102642.63;;;8.58;100.00
11856;BME280;5987;53.140;8.904;2023-04-08T12:46:53;102644.38;;;8.67;100.00
11856;BME280;5987;53.140;8.904;2023-04-08T12:49:57;102644.38;;;8.61;100.00
11856;BME280;5987;53.140;8.904;2023-04-08T12:53:00;102650.50;;;8.86;100.00
11856;BME280;5987;53.140;8.904;2023-04-08T12:56:05;102652.25;;;8.64;100.00
11856;BME280;5987;53.140;8.904;2023-04-08T12:59:09;102648.75;;;8.65;100.00
11856;BME280;5987;53.140;8.904;2023-04-08T13:02:16;102653.09;;;8.51;100.00
11856;BME280;5987;53.140;8.904;2023-04-08T13:05:22;102651.34;;;8.56;100.00
11856;BME280;5987;53.140;8.904;2023-04-08T13:08:44;102652.25;;;8.83;100.00
11856;BME280;5987;53.140;8.904;2023-04-08T13:11:49;102653.97;;;8.87;100.00
11856;BME280;5987;53.140;8.904;2023-04-08T13:14:53;102641.75;;;8.86;100.00
11856;BME280;5987;53.140;8.904;2023-04-08T13:17:58;102644.38;;;8.80;100.00
11856;BME280;5987;53.140;8.904;2023-04-08T13:21:02;102649.59;;;8.52;100.00
11856;BME280;5987;53.140;8.904;2023-04-08T13:24:06;102645.25;;;8.57;100.00
11856;BME280;5987;53.140;8.904;2023-04-08T13:27:10;102640.91;;;8.78;100.00
11856;BME280;5987;53.140;8.904;2023-04-08T13:30:13;102646.13;;;8.82;100.00
11856;BME280;5987;53.140;8.904;2023-04-08T13:33:20;102646.13;;;8.70;100.00
11856;BME280;5987;53.140;8.904;2023-04-08T13:36:25;102639.13;;;8.69;100.00
11856;BME280;5987;53.140;8.904;2023-04-08T13:39:30;102646.13;;;8.91;100.00
11856;BME280;5987;53.140;8.904;2023-04-08T13:42:34;102636.53;;;8.73;100.00
11856;BME280;5987;53.140;8.904;2023-04-08T13:45:38;102635.66;;;8.71;100.00
11856;BME280;5987;53.140;8.904;2023-04-08T13:48:43;102640.03;;;8.86;100.00
11856;BME280;5987;53.140;8.904;2023-04-08T13:51:47;102634.78;;;8.75;100.00
11856;BME280;5987;53.140;8.904;2023-04-08T13:54:52;102636.50;;;8.86;100.00
11856;BME280;5987;53.140;8.904;2023-04-08T13:57:57;102633.03;;;8.88;100.00
11856;BME280;5987;53.140;8.904;2023-04-08T14:01:00;102638.28;;;8.93;100.00
11856;BME280;5987;53.140;8.904;2023-04-08T14:04:08;102641.75;;;8.86;100.00
11856;BME280;5987;53.140;8.904;2023-04-08T14:07:12;102633.91;;;8.89;100.00
11856;BME280;5987;53.140;8.904;2023-04-08T14:10:16;102643.50;;;8.98;100.00
11856;BME280;5987;53.140;8.904;2023-04-08T14:13:20;102635.63;;;9.01;100.00
11856;BME280;5987;53.140;8.904;2023-04-08T14:16:26;102646.09;;;9.05;100.00
11856;BME280;5987;53.140;8.904;2023-04-08T14:19:33;102643.50;;;8.90;100.00
11856;BME280;5987;53.140;8.904;2023-04-08T14:22:37;102646.13;;;8.98;100.00
11856;BME280;5987;53.140;8.904;2023-04-08T14:25:40;102650.47;;;9.06;100.00
11856;BME280;5987;53.140;8.904;2023-04-08T14:28:45;102643.50;;;8.99;100.00
11856;BME280;5987;53.140;8.904;2023-04-08T14:31:50;102642.63;;;9.00;100.00
11856;BME280;5987;53.140;8.904;2023-04-08T14:34:56;102648.75;;;8.96;100.00
11856;BME280;5987;53.140;8.904;2023-04-08T14:38:00;102649.63;;;8.93;100.00
11856;BME280;5987;53.140;8.904;2023-04-08T14:41:04;102648.75;;;8.99;100.00
11856;BME280;5987;53.140;8.904;2023-04-08T14:44:10;102650.50;;;9.00;100.00
11856;BME280;5987;53.140;8.904;2023-04-08T14:47:13;102653.13;;;8.99;100.00
11856;BME280;5987;53.140;8.904;2023-04-08T14:50:18;102645.25;;;9.06;100.00
11856;BME280;5987;53.140;8.904;2023-04-08T14:53:23;102644.38;;;8.98;100.00
11856;BME280;5987;53.140;8.904;2023-04-08T14:56:26;102647.00;;;8.98;100.00
11856;BME280;5987;53.140;8.904;2023-04-08T14:59:30;102650.50;;;8.86;100.00
11856;BME280;5987;53.140;8.904;2023-04-08T15:02:34;102647.00;;;8.89;100.00
11856;BME280;5987;53.140;8.904;2023-04-08T15:05:42;102643.50;;;8.87;100.00
11856;BME280;5987;53.140;8.904;2023-04-08T15:08:46;102648.75;;;8.65;100.00
11856;BME280;5987;53.140;8.904;2023-04-08T15:11:50;102645.25;;;8.96;100.00
11856;BME280;5987;53.140;8.904;2023-04-08T15:14:55;102650.47;;;8.96;100.00
11856;BME280;5987;53.140;8.904;2023-04-08T15:18:02;102643.50;;;8.84;100.00
11856;BME280;5987;53.140;8.904;2023-04-08T15:21:08;102649.63;;;9.06;100.00
11856;BME280;5987;53.140;8.904;2023-04-08T15:24:13;102640.00;;;9.16;100.00
11856;BME280;5987;53.140;8.904;2023-04-08T15:27:17;102631.28;;;9.04;100.00
11856;BME280;5987;53.140;8.904;2023-04-08T15:30:21;102639.13;;;8.98;100.00
11856;BME280;5987;53.140;8.904;2023-04-08T15:33:26;102643.53;;;8.95;100.00
11856;BME280;5987;53.140;8.904;2023-04-08T15:36:33;102641.75;;;9.10;100.00
11856;BME280;5987;53.140;8.904;2023-04-08T15:39:39;102646.13;;;9.01;100.00
11856;BME280;5987;53.140;8.904;2023-04-08T15:42:43;102647.00;;;9.04;100.00
11856;BME280;5987;53.140;8.904;2023-04-08T15:45:47;102646.09;;;9.19;100.00
11856;BME280;5987;53.140;8.904;2023-04-08T15:48:51;102642.63;;;9.00;100.00
11856;BME280;5987;53.140;8.904;2023-04-08T15:51:57;102643.50;;;8.96;100.00
11856;BME280;5987;53.140;8.904;2023-04-08T15:55:01;102642.63;;;8.92;100.00
11856;BME280;5987;53.140;8.904;2023-04-08T15:58:05;102644.38;;;8.95;100.00
11856;BME280;5987;53.140;8.904;2023-04-08T16:01:09;102647.88;;;8.89;100.00
11856;BME280;5987;53.140;8.904;2023-04-08T16:04:13;102648.75;;;8.90;100.00
11856;BME280;5987;53.140;8.904;2023-04-08T16:07:19;102649.63;;;8.90;100.00
11856;BME280;5987;53.140;8.904;2023-04-08T16:10:23;102647.88;;;8.72;100.00
11856;BME280;5987;53.140;8.904;2023-04-08T16:13:27;102654.00;;;8.82;100.00
11856;BME280;5987;53.140;8.904;2023-04-08T16:16:35;102654.00;;;8.84;100.00
11856;BME280;5987;53.140;8.904;2023-04-08T16:19:41;102649.63;;;8.84;100.00
11856;BME280;5987;53.140;8.904;2023-04-08T16:22:47;102650.47;;;8.66;100.00